Time;durP1;ratioP1;P1;durP2;ratioP2;P2;SDS_P1;SDS_P2;PMS_P1;PMS_P2;Temp;Humidity;BMP_temperature;BMP_pressure;BME280_temperature;BME280_humidity;BME280_pressure;Samples;Min_cycle;Max_cycle;Signal;HPM_P1;HPM_P2
2022/12/26 00:00:39;;;;;;;25.43;14.33;;;9.90;99.90;;;;;;5066812;28;20198;-62
2022/12/26 00:03:06;;;;;;;23.87;13.07;;;9.90;99.90;;;;;;5072470;28;20205;-63
2022/12/26 00:05:36;;;;;;;22.40;13.40;;;9.90;99.90;;;;;;5074533;28;20206;-63
2022/12/26 00:08:04;;;;;;;26.13;13.27;;;9.90;99.90;;;;;;5074956;28;20378;-62
2022/12/26 00:10:30;;;;;;;22.57;13.73;;;9.90;99.90;;;;;;5078300;28;20792;-63
2022/12/26 00:12:57;;;;;;;23.27;14.07;;;9.80;99.90;;;;;;5070856;28;20296;-62
2022/12/26 00:15:44;;;;;;;20.53;12.33;;;9.90;99.90;;;;;;5075551;28;20217;-63
2022/12/26 00:18:11;;;;;;;23.93;14.00;;;9.90;99.90;;;;;;5074948;28;20218;-62
2022/12/26 00:20:37;;;;;;;21.70;12.87;;;9.80;99.90;;;;;;5076795;28;20672;-62
2022/12/26 00:23:04;;;;;;;23.17;12.37;;;9.90;99.90;;;;;;5076729;28;20253;-62
2022/12/26 00:25:33;;;;;;;26.17;14.10;;;9.80;99.90;;;;;;5076607;28;20198;-63
2022/12/26 00:28:00;;;;;;;24.07;13.70;;;9.80;99.90;;;;;;5076506;28;20233;-63
2022/12/26 00:30:27;;;;;;;21.50;13.40;;;9.80;99.90;;;;;;5075509;28;21859;-62
2022/12/26 00:32:54;;;;;;;24.50;13.87;;;9.80;99.90;;;;;;5076375;28;20237;-62
2022/12/26 00:35:21;;;;;;;22.37;13.23;;;9.90;99.90;;;;;;5075665;28;20261;-63
2022/12/26 00:37:48;;;;;;;23.53;12.60;;;9.80;99.90;;;;;;5057064;28;20269;-62
2022/12/26 00:40:16;;;;;;;21.70;13.03;;;9.80;99.90;;;;;;5073313;28;20217;-62
2022/12/26 00:42:42;;;;;;;21.03;12.50;;;9.90;99.90;;;;;;5076677;28;20302;-63
2022/12/26 00:45:09;;;;;;;21.70;13.73;;;9.90;99.90;;;;;;5078839;28;20198;-62
2022/12/26 00:47:36;;;;;;;21.77;12.97;;;9.90;99.90;;;;;;5078425;28;20207;-62
2022/12/26 00:50:03;;;;;;;23.47;14.00;;;9.80;99.90;;;;;;5079106;28;20293;-63
2022/12/26 00:52:41;;;;;;;18.33;11.47;;;9.90;99.90;;;;;;5078453;28;20208;-62
2022/12/26 00:55:09;;;;;;;25.13;14.33;;;9.80;99.90;;;;;;5077479;28;20628;-62
2022/12/26 00:57:36;;;;;;;20.57;12.47;;;9.90;99.90;;;;;;5077133;28;20223;-62
2022/12/26 01:00:04;;;;;;;20.57;12.13;;;9.80;99.90;;;;;;5076991;28;20206;-62
2022/12/26 01:02:36;;;;;;;21.57;13.77;;;9.80;99.90;;;;;;5079116;28;20293;-62
2022/12/26 01:05:06;;;;;;;21.83;13.73;;;9.80;99.90;;;;;;5078037;28;20229;-62
2022/12/26 01:07:35;;;;;;;21.07;13.77;;;9.80;99.90;;;;;;5076464;28;20253;-63
2022/12/26 01:10:22;;;;;;;22.70;14.07;;;9.80;99.90;;;;;;5078843;28;20230;-62
2022/12/26 01:12:48;;;;;;;22.50;14.37;;;9.80;99.90;;;;;;5077189;28;20245;-62
2022/12/26 01:15:15;;;;;;;21.70;14.00;;;9.90;99.90;;;;;;5076144;28;20221;-63
2022/12/26 01:17:42;;;;;;;22.03;14.97;;;9.90;99.90;;;;;;5077931;28;20358;-66
2022/12/26 01:20:09;;;;;;;21.17;13.93;;;9.80;99.90;;;;;;5078868;28;20335;-62
2022/12/26 01:22:36;;;;;;;25.77;13.93;;;9.80;99.90;;;;;;5060550;28;20210;-62
2022/12/26 01:25:04;;;;;;;24.50;15.10;;;9.80;99.90;;;;;;5074854;28;20202;-63
2022/12/26 01:27:31;;;;;;;22.40;14.67;;;9.80;99.90;;;;;;5077757;28;20612;-62
2022/12/26 01:29:57;;;;;;;21.60;14.60;;;9.80;99.90;;;;;;5076723;28;20301;-62
2022/12/26 01:32:24;;;;;;;26.00;15.70;;;9.80;99.90;;;;;;5061811;28;20286;-62
2022/12/26 01:34:54;;;;;;;24.07;14.83;;;9.80;99.90;;;;;;5078525;28;20286;-65
2022/12/26 01:37:22;;;;;;;24.37;14.87;;;9.80;99.90;;;;;;5077441;28;20300;-62
2022/12/26 01:39:50;;;;;;;26.13;14.87;;;9.80;99.90;;;;;;5076045;28;20712;-62
2022/12/26 01:42:21;;;;;;;22.07;14.43;;;9.70;99.90;;;;;;5079534;28;20195;-62
2022/12/26 01:45:02;;;;;;;26.33;16.17;;;9.70;99.90;;;;;;5076668;28;20284;-63
2022/12/26 01:47:50;;;;;;;27.10;15.70;;;9.70;99.90;;;;;;5078832;28;20237;-63
2022/12/26 01:50:34;;;;;;;25.30;15.00;;;9.60;99.90;;;;;;5078901;28;20878;-63
2022/12/26 01:53:16;;;;;;;24.27;15.97;;;9.60;99.90;;;;;;5075014;28;20312;-62
2022/12/26 01:55:49;;;;;;;23.43;15.40;;;9.60;99.90;;;;;;5078051;28;20213;-63
2022/12/26 01:58:27;;;;;;;25.83;15.67;;;9.60;99.90;;;;;;5074713;28;20295;-62
2022/12/26 02:00:54;;;;;;;22.00;14.93;;;9.60;99.90;;;;;;5078063;28;20626;-62
2022/12/26 02:06:11;;;;;;;26.60;16.70;;;9.70;99.90;;;;;;5075398;28;20665;-63
2022/12/26 02:08:39;;;;;;;22.57;15.03;;;9.70;99.90;;;;;;5054347;28;20216;-62
2022/12/26 02:11:40;;;;;;;24.03;15.67;;;9.70;99.90;;;;;;5077289;28;20241;-62
2022/12/26 02:14:09;;;;;;;25.47;15.90;;;9.70;99.90;;;;;;5065363;28;20663;-62
2022/12/26 02:16:38;;;;;;;26.60;16.60;;;9.70;99.90;;;;;;5078026;28;20289;-62
2022/12/26 02:19:22;;;;;;;26.77;16.13;;;9.70;99.90;;;;;;5076957;28;20588;-63
2022/12/26 02:22:17;;;;;;;27.77;16.97;;;9.70;99.90;;;;;;5064921;28;20214;-62
2022/12/26 02:24:56;;;;;;;29.17;17.23;;;9.70;99.90;;;;;;5075519;28;20207;-62
2022/12/26 02:27:29;;;;;;;26.40;17.80;;;9.70;99.90;;;;;;5061478;28;20317;-62
2022/12/26 02:30:02;;;;;;;29.03;17.43;;;9.70;99.90;;;;;;5075171;28;20297;-62
2022/12/26 02:33:00;;;;;;;29.13;17.80;;;9.70;99.90;;;;;;5077804;28;20240;-62
2022/12/26 02:35:56;;;;;;;26.57;17.97;;;9.70;99.90;;;;;;5063656;28;20224;-62
2022/12/26 02:38:52;;;;;;;31.40;19.13;;;9.70;99.90;;;;;;5039610;28;20219;-63
2022/12/26 02:41:25;;;;;;;30.17;18.67;;;9.70;99.90;;;;;;5079616;28;20198;-62
2022/12/26 02:47:01;;;;;;;28.17;18.70;;;9.60;99.90;;;;;;5077906;28;20264;-62
2022/12/26 02:47:31;;;;;;;31.90;16.97;;;9.70;99.90;;;;;;5080457;28;20892;-62
2022/12/26 03:14:25;;;;;;;23.70;15.53;;;9.70;99.90;;;;;;5078152;28;20242;-62
2022/12/26 03:19:59;;;;;;;22.00;14.07;;;9.70;99.90;;;;;;5069493;28;20238;-62
2022/12/26 03:22:38;;;;;;;22.87;14.27;;;9.80;99.90;;;;;;5081172;28;20661;-62
2022/12/26 03:27:55;;;;;;;20.23;13.40;;;9.80;99.90;;;;;;5079011;28;20199;-62
2022/12/26 03:34:16;;;;;;;19.93;13.93;;;9.80;99.90;;;;;;5081247;28;20288;-63
2022/12/26 03:35:57;;;;;;;18.57;13.77;;;9.80;99.90;;;;;;5081174;28;20210;-62
2022/12/26 03:38:50;;;;;;;18.20;12.57;;;9.80;99.90;;;;;;5080211;28;20309;-63
2022/12/26 04:20:46;;;;;;;10.40;8.20;;;9.50;99.90;;;;;;5079101;28;20200;-63
2022/12/26 04:44:16;;;;;;;8.77;6.50;;;9.40;99.90;;;;;;5078916;28;20226;-62
2022/12/26 04:46:47;;;;;;;8.10;6.20;;;9.40;99.90;;;;;;5077252;28;20193;-63
2022/12/26 04:52:10;;;;;;;7.57;6.23;;;9.40;99.90;;;;;;5072238;28;20307;-62
2022/12/26 04:54:37;;;;;;;8.60;6.10;;;9.40;99.90;;;;;;5060735;28;20288;-62
2022/12/26 04:57:04;;;;;;;6.93;5.43;;;9.40;99.90;;;;;;5059731;28;20256;-62
2022/12/26 04:59:31;;;;;;;7.00;5.07;;;9.40;99.90;;;;;;5076748;28;20258;-62
2022/12/26 05:10:28;;;;;;;5.80;4.70;;;9.30;99.90;;;;;;5078948;28;20274;-63
2022/12/26 05:12:55;;;;;;;6.10;4.77;;;9.30;99.90;;;;;;5076842;28;20200;-62
2022/12/26 05:15:22;;;;;;;6.53;4.60;;;9.30;99.90;;;;;;5075231;28;20217;-64
2022/12/26 05:29:03;;;;;;;5.57;4.13;;;9.30;99.90;;;;;;5076692;28;20203;-63
2022/12/26 05:31:30;;;;;;;6.37;5.17;;;9.30;99.90;;;;;;5078680;28;20320;-62
2022/12/26 05:34:11;;;;;;;6.93;5.37;;;9.30;99.90;;;;;;5080437;28;20229;-62
2022/12/26 05:36:45;;;;;;;7.87;5.10;;;9.30;99.90;;;;;;5080707;28;20220;-62
2022/12/26 05:39:12;;;;;;;6.70;4.97;;;9.30;99.90;;;;;;5078019;28;20250;-62
2022/12/26 05:41:39;;;;;;;9.40;5.43;;;9.20;99.90;;;;;;5079638;28;20302;-63
2022/12/26 05:44:07;;;;;;;7.70;5.30;;;9.20;99.90;;;;;;5078569;28;20244;-62
2022/12/26 05:46:35;;;;;;;8.80;5.13;;;9.30;99.90;;;;;;5079181;28;20708;-62
2022/12/26 05:49:03;;;;;;;8.17;5.40;;;9.20;99.90;;;;;;5078707;28;20602;-63
2022/12/26 05:51:30;;;;;;;8.40;5.17;;;9.30;99.90;;;;;;5061686;28;20287;-63
2022/12/26 05:53:57;;;;;;;7.53;4.67;;;9.20;99.90;;;;;;5060377;28;20206;-62
2022/12/26 05:56:24;;;;;;;6.77;4.80;;;9.20;99.90;;;;;;5079432;28;20300;-66
2022/12/26 05:58:58;;;;;;;6.57;4.77;;;9.20;99.90;;;;;;5073604;28;20316;-63
2022/12/26 06:01:26;;;;;;;6.60;5.00;;;9.20;99.90;;;;;;5078841;28;20211;-62
2022/12/26 06:03:56;;;;;;;8.30;4.93;;;9.20;99.90;;;;;;5077910;28;20228;-62
2022/12/26 06:06:24;;;;;;;7.47;5.63;;;9.20;99.90;;;;;;5077909;28;20202;-63
2022/12/26 06:08:53;;;;;;;7.07;4.80;;;9.20;99.90;;;;;;5068979;28;20664;-62
2022/12/26 06:11:20;;;;;;;8.57;5.90;;;9.20;99.90;;;;;;5081023;28;20626;-63
2022/12/26 06:13:47;;;;;;;7.27;5.40;;;9.20;99.90;;;;;;5073732;28;20225;-62
2022/12/26 06:16:16;;;;;;;9.57;5.40;;;9.20;99.90;;;;;;5080999;28;20278;-66
2022/12/26 06:18:43;;;;;;;9.70;5.93;;;9.20;99.90;;;;;;5083151;28;20233;-62
2022/12/26 06:21:13;;;;;;;6.60;5.00;;;9.20;99.90;;;;;;5075967;28;20195;-63
2022/12/26 06:23:40;;;;;;;8.43;5.37;;;9.10;99.90;;;;;;5058095;28;20199;-62
2022/12/26 06:26:08;;;;;;;8.87;5.73;;;9.20;99.90;;;;;;5077362;28;20215;-62
2022/12/26 06:28:36;;;;;;;6.23;4.63;;;9.20;99.90;;;;;;5060814;28;20206;-65
2022/12/26 06:31:05;;;;;;;7.57;5.17;;;9.20;99.90;;;;;;5081106;28;20241;-63
2022/12/26 06:33:32;;;;;;;7.20;5.20;;;9.20;99.90;;;;;;5080376;28;20613;-62
2022/12/26 06:36:11;;;;;;;8.70;5.50;;;9.20;99.90;;;;;;5080233;28;20674;-63
2022/12/26 06:38:38;;;;;;;10.03;5.37;;;9.20;99.90;;;;;;5078573;28;20281;-62
2022/12/26 06:41:06;;;;;;;6.37;5.30;;;9.20;99.90;;;;;;5080119;28;20202;-63
2022/12/26 06:43:33;;;;;;;8.90;5.20;;;9.20;99.90;;;;;;5062884;28;20291;-62
2022/12/26 06:46:02;;;;;;;6.60;5.33;;;9.20;99.90;;;;;;5080144;28;20270;-62
2022/12/26 06:48:29;;;;;;;10.33;5.13;;;9.20;99.90;;;;;;5080394;28;20244;-63
2022/12/26 06:50:56;;;;;;;6.63;4.63;;;9.20;99.90;;;;;;5081779;28;20565;-63
2022/12/26 06:53:23;;;;;;;7.70;4.57;;;9.20;99.90;;;;;;5080429;28;20299;-63
2022/12/26 06:55:51;;;;;;;6.43;4.23;;;9.20;99.90;;;;;;5080255;28;20256;-62
2022/12/26 06:58:17;;;;;;;8.40;5.03;;;9.20;99.90;;;;;;5079580;28;20199;-63
2022/12/26 07:00:44;;;;;;;5.10;4.33;;;9.20;99.90;;;;;;5071757;28;20209;-63
2022/12/26 07:03:11;;;;;;;7.33;4.40;;;9.20;99.90;;;;;;5067952;28;20281;-63
2022/12/26 07:05:38;;;;;;;5.00;4.17;;;9.20;99.90;;;;;;5078544;28;20653;-63
2022/12/26 07:08:05;;;;;;;6.63;4.50;;;9.10;99.90;;;;;;5079161;28;20617;-62
2022/12/26 07:10:36;;;;;;;5.23;4.20;;;9.20;99.90;;;;;;5078780;28;20222;-62
2022/12/26 07:13:03;;;;;;;6.50;4.10;;;9.20;99.90;;;;;;5075915;28;20284;-62
2022/12/26 07:15:30;;;;;;;6.47;3.70;;;9.10;99.90;;;;;;5065427;28;20570;-63
2022/12/26 07:17:57;;;;;;;5.37;4.10;;;9.10;99.90;;;;;;5077421;28;20543;-62
2022/12/26 07:20:24;;;;;;;5.80;3.70;;;9.20;99.90;;;;;;5076199;28;20249;-64
2022/12/26 07:22:50;;;;;;;4.57;3.70;;;9.20;99.90;;;;;;5078786;28;20230;-66
2022/12/26 07:25:17;;;;;;;4.33;3.67;;;9.20;99.90;;;;;;5074399;28;20322;-65
2022/12/26 07:27:44;;;;;;;5.57;3.47;;;9.20;99.90;;;;;;5078109;28;20215;-62
2022/12/26 07:30:11;;;;;;;4.80;2.90;;;9.20;99.90;;;;;;5061141;28;20557;-63
2022/12/26 07:32:38;;;;;;;3.23;2.80;;;9.20;99.90;;;;;;5080439;28;20292;-63
2022/12/26 07:35:05;;;;;;;4.33;2.80;;;9.20;99.90;;;;;;5080326;28;20283;-63
2022/12/26 07:37:32;;;;;;;4.50;2.90;;;9.30;99.90;;;;;;5079220;28;20235;-63
2022/12/26 07:39:58;;;;;;;4.87;2.70;;;9.30;99.90;;;;;;5079988;28;20256;-62
2022/12/26 07:42:25;;;;;;;3.23;2.57;;;9.30;99.90;;;;;;5079063;28;20303;-63
2022/12/26 07:44:52;;;;;;;2.87;2.23;;;9.20;99.90;;;;;;5079985;28;20728;-62
2022/12/26 07:47:19;;;;;;;4.87;2.40;;;9.20;99.90;;;;;;5081067;28;20228;-62
2022/12/26 07:49:45;;;;;;;3.70;2.50;;;9.20;99.90;;;;;;5080858;28;20811;-62
2022/12/26 07:52:12;;;;;;;3.97;2.53;;;9.20;99.90;;;;;;5080707;28;20205;-62
2022/12/26 07:54:39;;;;;;;3.50;2.47;;;9.20;99.90;;;;;;5080292;28;20652;-63
2022/12/26 07:57:06;;;;;;;2.73;1.87;;;9.30;99.90;;;;;;5081006;28;20689;-62
2022/12/26 07:59:52;;;;;;;2.93;2.37;;;9.30;99.90;;;;;;5077986;28;20691;-62
2022/12/26 08:02:19;;;;;;;3.43;2.20;;;9.30;99.90;;;;;;5079876;28;21336;-63
2022/12/26 08:04:46;;;;;;;5.63;2.90;;;9.30;99.90;;;;;;5079522;28;20641;-63
2022/12/26 08:07:13;;;;;;;2.53;2.10;;;9.30;99.90;;;;;;5077120;28;20806;-63
2022/12/26 08:09:41;;;;;;;2.57;1.83;;;9.40;99.90;;;;;;5078293;28;20205;-64
2022/12/26 08:12:08;;;;;;;3.57;2.37;;;9.40;99.90;;;;;;5080653;28;20703;-63
2022/12/26 08:14:36;;;;;;;5.73;2.50;;;9.40;99.90;;;;;;5059724;28;20212;-63
2022/12/26 08:17:03;;;;;;;5.10;2.30;;;9.40;99.90;;;;;;5072853;28;20657;-63
2022/12/26 08:19:30;;;;;;;3.63;1.90;;;9.50;99.90;;;;;;5059523;28;20225;-63
2022/12/26 08:21:57;;;;;;;2.93;2.20;;;9.40;99.90;;;;;;5079849;28;20203;-63
2022/12/26 08:24:24;;;;;;;3.67;2.13;;;9.50;99.90;;;;;;5080176;28;20207;-63
2022/12/26 08:26:50;;;;;;;3.07;2.37;;;9.50;99.90;;;;;;5080121;28;20206;-63
2022/12/26 08:29:17;;;;;;;3.63;2.13;;;9.50;99.90;;;;;;5075599;28;20634;-63
2022/12/26 08:31:44;;;;;;;5.10;2.10;;;9.50;99.90;;;;;;5057568;28;20209;-63
2022/12/26 08:34:12;;;;;;;3.43;2.10;;;9.50;99.90;;;;;;5075091;28;20201;-62
2022/12/26 08:36:39;;;;;;;6.57;2.20;;;9.50;99.90;;;;;;4716064;28;10000696;-63
2022/12/26 08:39:07;;;;;;;5.23;2.47;;;9.60;99.90;;;;;;5060441;28;20245;-63
2022/12/26 08:41:33;;;;;;;7.00;1.93;;;9.60;99.90;;;;;;5065606;28;20214;-63
2022/12/26 08:44:00;;;;;;;4.27;1.83;;;9.60;99.90;;;;;;5073186;28;20203;-63
2022/12/26 08:46:47;;;;;;;3.23;1.90;;;9.60;99.90;;;;;;5076141;28;20205;-63
2022/12/26 08:49:14;;;;;;;5.60;1.60;;;9.70;99.90;;;;;;5074204;28;20215;-62
2022/12/26 08:51:40;;;;;;;2.53;2.00;;;9.80;99.90;;;;;;5072099;28;20213;-63
2022/12/26 08:54:07;;;;;;;3.63;2.00;;;9.80;99.90;;;;;;5071250;28;20211;-62
2022/12/26 08:56:34;;;;;;;6.20;2.10;;;9.80;99.90;;;;;;5074827;28;20664;-62
2022/12/26 08:59:01;;;;;;;4.93;2.10;;;9.80;99.90;;;;;;5072212;28;20633;-63
2022/12/26 09:01:29;;;;;;;2.03;1.73;;;9.90;99.90;;;;;;5075246;28;20585;-62
2022/12/26 09:03:59;;;;;;;2.63;1.73;;;9.90;99.90;;;;;;5073792;28;20255;-63
2022/12/26 09:06:27;;;;;;;7.10;1.87;;;9.90;99.90;;;;;;5057299;28;20371;-63
2022/12/26 09:08:54;;;;;;;5.53;1.83;;;9.90;99.90;;;;;;5076112;28;20652;-62
2022/12/26 09:11:26;;;;;;;1.57;1.47;;;9.90;99.90;;;;;;5059075;28;20227;-63
2022/12/26 09:13:55;;;;;;;2.67;1.60;;;10.00;99.90;;;;;;5074543;28;20202;-63
2022/12/26 09:16:25;;;;;;;1.90;1.50;;;10.00;99.90;;;;;;5076255;28;20197;-63
2022/12/26 09:18:55;;;;;;;2.37;1.70;;;9.90;99.90;;;;;;5060666;28;20230;-63
2022/12/26 09:21:22;;;;;;;3.63;2.20;;;10.00;99.90;;;;;;5059570;28;21871;-63
2022/12/26 09:23:49;;;;;;;1.90;1.40;;;10.00;99.90;;;;;;5074683;28;20202;-63
2022/12/26 09:26:19;;;;;;;4.00;1.53;;;10.00;99.90;;;;;;5076548;28;20201;-63
2022/12/26 09:28:46;;;;;;;4.23;1.30;;;10.00;99.90;;;;;;5077386;28;20222;-63
2022/12/26 09:31:21;;;;;;;4.77;1.60;;;10.00;99.90;;;;;;5059495;28;20210;-63
2022/12/26 09:33:48;;;;;;;3.13;1.50;;;10.10;99.90;;;;;;5076968;28;20236;-63
2022/12/26 09:36:18;;;;;;;3.07;1.60;;;10.00;99.90;;;;;;5077525;28;20209;-63
2022/12/26 09:38:46;;;;;;;1.97;1.40;;;10.00;99.90;;;;;;5058920;28;20209;-63
2022/12/26 09:41:35;;;;;;;2.50;1.63;;;10.10;99.90;;;;;;5074758;28;20222;-63
2022/12/26 09:44:20;;;;;;;7.37;1.30;;;10.10;99.90;;;;;;5075350;28;20202;-62
2022/12/26 09:46:53;;;;;;;3.33;1.70;;;10.10;99.90;;;;;;5065458;28;20543;-63
2022/12/26 09:49:29;;;;;;;3.30;1.60;;;10.20;99.90;;;;;;5080765;28;20212;-62
2022/12/26 09:52:16;;;;;;;2.37;1.37;;;10.20;99.90;;;;;;5082325;28;21105;-63
2022/12/26 09:54:56;;;;;;;4.20;1.63;;;10.20;99.90;;;;;;5065323;28;20285;-62
2022/12/26 09:57:49;;;;;;;2.47;1.50;;;10.30;99.90;;;;;;5079648;28;20662;-65
2022/12/26 10:00:20;;;;;;;2.47;1.17;;;10.30;99.90;;;;;;5081582;28;20301;-63
2022/12/26 10:02:56;;;;;;;4.60;1.67;;;10.30;99.90;;;;;;5077900;28;20243;-63
2022/12/26 10:05:34;;;;;;;3.43;1.70;;;10.30;99.90;;;;;;5071993;28;20937;-63
2022/12/26 10:08:24;;;;;;;3.10;1.20;;;10.30;99.90;;;;;;5070386;28;20233;-63
2022/12/26 10:11:01;;;;;;;2.50;1.10;;;10.20;99.90;;;;;;5079010;28;20226;-63
2022/12/26 10:13:53;;;;;;;3.83;1.20;;;9.90;99.90;;;;;;5076744;28;20213;-64
2022/12/26 10:16:37;;;;;;;6.23;1.27;;;9.90;99.90;;;;;;5075669;28;20553;-63
2022/12/26 10:19:25;;;;;;;8.77;1.30;;;9.70;99.90;;;;;;5074483;28;20201;-65
2022/12/26 10:22:16;;;;;;;6.27;1.20;;;9.50;99.90;;;;;;5079796;28;20211;-63
2022/12/26 10:24:44;;;;;;;5.07;1.30;;;9.50;99.90;;;;;;5062154;28;20237;-62
2022/12/26 10:27:17;;;;;;;7.43;1.77;;;9.50;99.90;;;;;;5079563;28;20241;-63
2022/12/26 10:30:06;;;;;;;8.23;2.17;;;9.40;99.90;;;;;;5075917;28;20295;-63
2022/12/26 10:32:38;;;;;;;7.03;1.27;;;9.40;99.90;;;;;;5077001;28;20201;-63
2022/12/26 10:35:26;;;;;;;2.90;1.00;;;9.40;99.90;;;;;;5079309;28;20252;-63
2022/12/26 10:37:55;;;;;;;7.27;1.40;;;9.40;99.90;;;;;;5059675;28;20805;-63
2022/12/26 10:40:28;;;;;;;6.33;1.20;;;9.40;99.90;;;;;;5080043;28;20977;-63
2022/12/26 10:43:02;;;;;;;5.33;1.40;;;9.40;99.90;;;;;;5077337;28;20221;-63
2022/12/26 10:45:44;;;;;;;5.13;1.60;;;9.40;99.90;;;;;;5066984;28;20216;-63
2022/12/26 10:48:15;;;;;;;7.37;1.93;;;9.30;99.90;;;;;;5077907;28;20198;-63
2022/12/26 10:50:48;;;;;;;5.13;1.80;;;9.30;99.90;;;;;;5070628;28;20729;-63
2022/12/26 10:53:15;;;;;;;7.07;1.67;;;9.30;99.90;;;;;;5074727;28;20237;-63
2022/12/26 10:55:42;;;;;;;7.03;1.47;;;9.40;99.90;;;;;;5058289;28;20215;-62
2022/12/26 10:58:32;;;;;;;6.90;2.03;;;9.40;99.90;;;;;;5072446;28;20210;-63
2022/12/26 11:01:28;;;;;;;7.63;1.60;;;9.40;99.90;;;;;;5062032;28;20227;-63
2022/12/26 11:03:58;;;;;;;6.47;1.80;;;9.20;99.90;;;;;;5059291;28;20675;-63
2022/12/26 11:06:52;;;;;;;6.63;1.70;;;9.10;99.90;;;;;;5078076;28;20227;-63
2022/12/26 11:09:39;;;;;;;5.87;1.40;;;9.00;99.90;;;;;;5067840;28;20206;-63
2022/12/26 11:12:23;;;;;;;5.43;1.50;;;8.90;99.90;;;;;;5074168;28;20256;-63
2022/12/26 11:15:00;;;;;;;6.03;1.43;;;8.90;99.90;;;;;;5077025;28;20206;-63
2022/12/26 11:17:30;;;;;;;6.53;1.73;;;8.90;99.90;;;;;;5073333;28;20212;-63
2022/12/26 11:20:15;;;;;;;6.20;1.50;;;8.90;99.90;;;;;;5072089;28;20336;-63
2022/12/26 11:22:43;;;;;;;6.30;1.50;;;8.90;99.90;;;;;;5075204;28;20259;-63
2022/12/26 11:25:10;;;;;;;9.33;2.30;;;8.90;99.90;;;;;;5074645;28;20211;-63
2022/12/26 11:27:43;;;;;;;9.97;1.50;;;9.00;99.90;;;;;;5075919;28;20271;-63
2022/12/26 11:30:31;;;;;;;4.23;1.37;;;9.10;99.90;;;;;;5077385;28;20204;-63
2022/12/26 11:33:40;;;;;;;4.50;1.50;;;9.20;99.90;;;;;;5071501;28;20287;-62
2022/12/26 11:36:17;;;;;;;5.37;1.70;;;9.30;99.90;;;;;;5077471;28;20218;-63
2022/12/26 11:38:46;;;;;;;7.23;1.43;;;9.10;99.90;;;;;;5076849;28;20205;-63
2022/12/26 11:41:31;;;;;;;6.23;1.07;;;9.00;99.90;;;;;;5074783;28;20253;-63
2022/12/26 11:44:27;;;;;;;4.10;1.13;;;9.00;99.90;;;;;;5071759;28;20207;-63
2022/12/26 11:47:07;;;;;;;3.03;1.07;;;8.90;99.90;;;;;;5058968;28;20293;-63
2022/12/26 11:49:59;;;;;;;4.30;1.00;;;8.90;99.90;;;;;;5075518;28;20206;-63
2022/12/26 11:52:28;;;;;;;6.07;1.90;;;8.90;99.90;;;;;;5061864;28;20216;-63
2022/12/26 11:54:57;;;;;;;5.00;1.30;;;8.80;99.90;;;;;;5074168;28;20209;-63
2022/12/26 11:57:30;;;;;;;4.93;1.30;;;8.80;99.90;;;;;;5070568;28;20636;-63
2022/12/26 12:00:18;;;;;;;4.83;1.30;;;8.70;99.90;;;;;;5073905;28;20298;-63
2022/12/26 12:02:45;;;;;;;4.60;1.13;;;8.80;99.90;;;;;;5069702;28;20252;-63
2022/12/26 12:05:21;;;;;;;4.10;1.17;;;8.90;99.90;;;;;;5057691;28;20332;-63
2022/12/26 12:08:04;;;;;;;3.90;0.97;;;8.90;99.90;;;;;;5061760;28;20295;-64
2022/12/26 12:10:50;;;;;;;8.20;1.27;;;9.00;99.90;;;;;;5055889;28;21922;-63
2022/12/26 12:13:42;;;;;;;7.97;1.10;;;9.00;99.90;;;;;;5075309;28;20211;-63
2022/12/26 12:16:33;;;;;;;4.20;1.17;;;8.90;99.90;;;;;;5057025;28;22069;-62
2022/12/26 12:19:36;;;;;;;2.53;1.53;;;9.10;99.90;;;;;;5057793;28;20779;-63
2022/12/26 12:22:28;;;;;;;6.33;1.47;;;9.00;99.90;;;;;;5057830;28;20204;-63
2022/12/26 12:25:01;;;;;;;10.33;1.40;;;8.90;99.90;;;;;;5077500;28;20657;-62
2022/12/26 12:27:42;;;;;;;6.93;1.10;;;9.00;99.90;;;;;;5075881;28;20293;-63
2022/12/26 12:30:22;;;;;;;6.00;1.30;;;9.00;99.90;;;;;;5077111;28;20212;-63
2022/12/26 12:33:07;;;;;;;6.03;1.20;;;9.10;99.90;;;;;;5075222;28;20297;-63
2022/12/26 12:35:59;;;;;;;12.37;1.63;;;8.90;99.90;;;;;;5060617;28;20235;-63
2022/12/26 12:39:04;;;;;;;4.23;1.50;;;8.80;99.90;;;;;;5072038;28;20628;-63
2022/12/26 12:41:41;;;;;;;4.00;0.97;;;8.80;99.90;;;;;;5071867;28;20217;-63
2022/12/26 12:44:44;;;;;;;8.50;1.37;;;8.80;99.90;;;;;;5075535;28;20632;-63
2022/12/26 12:47:34;;;;;;;6.03;1.17;;;8.80;99.90;;;;;;5075571;28;20202;-63
2022/12/26 12:50:29;;;;;;;5.87;1.33;;;8.80;99.90;;;;;;5074973;28;20196;-62
2022/12/26 12:53:19;;;;;;;4.97;1.30;;;8.80;99.90;;;;;;5073418;28;20218;-65
2022/12/26 12:56:24;;;;;;;5.97;1.10;;;8.70;99.90;;;;;;5074241;28;20229;-62
2022/12/26 12:59:03;;;;;;;6.60;1.20;;;8.60;99.90;;;;;;5064300;28;20307;-62
2022/12/26 13:01:38;;;;;;;2.20;1.03;;;8.50;99.90;;;;;;5074053;28;20685;-62
2022/12/26 13:04:19;;;;;;;4.43;1.00;;;8.80;99.90;;;;;;5076081;28;20211;-62
2022/12/26 13:06:57;;;;;;;2.43;1.13;;;8.60;99.90;;;;;;5073942;28;20293;-62
2022/12/26 13:09:37;;;;;;;5.93;1.57;;;8.60;99.90;;;;;;5073109;28;20962;-61
2022/12/26 13:12:14;;;;;;;3.93;0.80;;;8.50;99.90;;;;;;5075164;28;20248;-61
2022/12/26 13:14:53;;;;;;;1.80;0.63;;;8.50;99.90;;;;;;5072404;28;20293;-64
2022/12/26 13:17:22;;;;;;;1.77;0.60;;;8.30;99.90;;;;;;5075288;28;20287;-61
2022/12/26 13:20:08;;;;;;;3.33;1.63;;;8.40;99.90;;;;;;5075138;28;20314;-63
2022/12/26 13:25:35;;;;;;;4.00;1.00;;;8.30;99.90;;;;;;5073373;28;20200;-62
2022/12/26 13:28:09;;;;;;;2.63;0.70;;;8.30;99.90;;;;;;5069033;28;20322;-62
2022/12/26 13:30:37;;;;;;;3.03;0.80;;;8.50;99.90;;;;;;5073455;28;20255;-63
2022/12/26 13:33:05;;;;;;;4.67;1.00;;;8.60;99.90;;;;;;5070673;28;20203;-64
2022/12/26 13:36:00;;;;;;;4.93;0.70;;;8.60;99.90;;;;;;5076518;28;20288;-64
2022/12/26 13:39:00;;;;;;;1.80;0.70;;;8.50;99.90;;;;;;5067098;28;20203;-62
2022/12/26 13:44:20;;;;;;;1.77;0.60;;;8.40;99.90;;;;;;5066635;28;20205;-64
2022/12/26 13:46:46;;;;;;;3.63;0.73;;;8.50;99.90;;;;;;5067305;28;20254;-62
2022/12/26 13:49:34;;;;;;;2.70;0.77;;;8.30;99.90;;;;;;5055721;28;21008;-65
2022/12/26 13:52:10;;;;;;;2.63;0.90;;;8.40;99.90;;;;;;5048061;28;20203;-64
2022/12/26 13:54:46;;;;;;;1.93;0.80;;;8.30;99.90;;;;;;5057670;28;20201;-64
2022/12/26 13:57:28;;;;;;;3.13;0.70;;;8.10;99.90;;;;;;5059257;28;20233;-64
2022/12/26 14:00:05;;;;;;;1.63;0.70;;;8.20;99.90;;;;;;5061024;28;20213;-64
2022/12/26 14:02:54;;;;;;;2.23;0.63;;;8.20;99.90;;;;;;5071058;28;20234;-64
2022/12/26 14:06:09;;;;;;;3.30;0.90;;;7.90;99.90;;;;;;5075513;28;20213;-64
2022/12/26 14:08:58;;;;;;;2.73;1.00;;;7.90;99.90;;;;;;5060633;28;20230;-64
2022/12/26 14:11:50;;;;;;;1.93;1.00;;;8.00;99.90;;;;;;5073498;28;20226;-64
2022/12/26 14:14:30;;;;;;;1.87;0.90;;;8.10;99.90;;;;;;5076338;28;20321;-64
2022/12/26 14:17:03;;;;;;;2.10;0.70;;;8.20;99.90;;;;;;5077868;28;20216;-64
2022/12/26 14:20:05;;;;;;;4.00;0.73;;;8.30;99.90;;;;;;5066046;28;20253;-64
2022/12/26 14:23:06;;;;;;;1.90;0.70;;;8.20;99.90;;;;;;5072203;28;20209;-64
2022/12/26 14:25:39;;;;;;;3.03;0.60;;;8.10;99.90;;;;;;5077538;28;20701;-64
2022/12/26 14:28:17;;;;;;;2.43;0.67;;;8.00;99.90;;;;;;5073992;28;21005;-64
2022/12/26 14:31:22;;;;;;;1.73;0.60;;;8.00;99.90;;;;;;5068649;28;20213;-64
2022/12/26 14:33:58;;;;;;;4.13;0.60;;;8.10;99.90;;;;;;5081752;28;20221;-64
2022/12/26 14:36:41;;;;;;;1.80;0.50;;;8.10;99.90;;;;;;5074580;28;20237;-64
2022/12/26 14:39:11;;;;;;;5.57;0.70;;;8.00;99.90;;;;;;5078090;28;20275;-65
2022/12/26 14:44:58;;;;;;;2.27;0.50;;;7.90;99.90;;;;;;5082735;28;20265;-64
2022/12/26 14:47:46;;;;;;;1.70;0.60;;;7.90;99.90;;;;;;5069395;28;20291;-65
2022/12/26 14:50:49;;;;;;;2.27;0.60;;;7.90;99.90;;;;;;5050959;28;20234;-66
2022/12/26 14:53:22;;;;;;;4.73;0.73;;;7.90;99.90;;;;;;5061542;28;20226;-64
2022/12/26 14:56:09;;;;;;;1.77;0.80;;;7.60;99.90;;;;;;5064085;28;20198;-64
2022/12/26 14:58:51;;;;;;;4.03;0.80;;;7.80;99.90;;;;;;5072223;28;20257;-64
2022/12/26 15:01:20;;;;;;;3.80;0.80;;;7.70;99.90;;;;;;5071354;28;20240;-62
2022/12/26 15:03:50;;;;;;;2.57;0.50;;;7.90;99.90;;;;;;5072987;28;21103;-63
2022/12/26 15:06:20;;;;;;;2.57;0.70;;;7.80;99.90;;;;;;5045807;28;20233;-62
2022/12/26 15:09:11;;;;;;;1.73;0.67;;;7.80;99.90;;;;;;5063610;28;20202;-62
2022/12/26 15:11:47;;;;;;;9.30;1.10;;;7.80;99.90;;;;;;5049556;28;20229;-64
2022/12/26 15:14:14;;;;;;;3.47;0.80;;;7.80;99.90;;;;;;5067359;28;20304;-62
2022/12/26 15:17:05;;;;;;;5.40;0.90;;;7.90;99.90;;;;;;5080777;28;20207;-62
2022/12/26 15:20:09;;;;;;;4.53;0.87;;;7.90;99.90;;;;;;5074120;28;20209;-64
2022/12/26 15:22:51;;;;;;;2.20;0.83;;;7.80;99.90;;;;;;5045964;28;20228;-62
2022/12/26 15:25:47;;;;;;;4.03;0.90;;;7.60;99.90;;;;;;5047673;28;20623;-62
2022/12/26 15:29:00;;;;;;;3.07;1.00;;;7.60;99.90;;;;;;5013113;28;20322;-62
2022/12/26 15:31:46;;;;;;;2.43;1.00;;;7.50;99.90;;;;;;5046655;28;20282;-62
2022/12/26 15:34:46;;;;;;;4.23;1.50;;;7.60;99.90;;;;;;5044752;28;20765;-63
2022/12/26 15:37:16;;;;;;;3.83;1.00;;;7.50;99.90;;;;;;5041072;28;20195;-62
2022/12/26 15:40:01;;;;;;;3.07;1.00;;;7.40;99.90;;;;;;5027367;28;20213;-62